Sunshine Summit (212) Station Data

Red Flag Warning: No
Fire Weather Zone: 258
SDGE Region: Ramona
Lat/Lon: 33.344/-116.732

Observations

Time Wind Speed/Gust Temp(F) RH Fuel Moist Fuel Temp(F) Dewpt(F) Tmax(F) Tmin(F) Accum Precip 10-min Precip SL Press(mb)
4/26 2:50am 151 2 G 3 46° 80% - - 41° 51.1° 46° - - -
4/26 2:40am 156 3 G 4 47° 77% - - 40° 51.1° 46.5° - - -
4/26 2:30am 149 1 G 3 48° 76% - - 40° 51.1° 47.1° - - -
4/26 2:20am 120 2 G 3 49° 70% - - 39° 51.1° 47.1° - - -
4/26 2:10am 325 3 G 7 51° 65% - - 39° 51.1° 47.1° - - -
4/26 2:00am 321 4 G 7 51° 65% - - 39° 51.1° 47.1° - - -
4/26 1:50am 320 4 G 8 50° 68% - - 40° 50.2° 47.1° - - -
4/26 1:40am 300 6 G 7 50° 70% - - 40° 50.1° 47.1° - - -
4/26 1:30am 321 4 G 6 50° 69% - - 40° 50° 47.1° - - -
4/26 1:20am 324 4 G 6 49° 71% - - 40° 49.8° 47.1° - - -
4/26 1:10am 320 4 G 6 48° 74% - - 40° 49.7° 47.1° - - -
4/26 1:00am 302 5 G 6 48° 77% - - 41° 49.7° 47.1° - - -
4/26 12:50am 311 2 G 4 48° 78% - - 41° 49.7° 47.2° - - -
4/26 12:40am 299 2 G 3 49° 78% - - 42° 49.7° 47.9° - - -
4/26 12:30am 292 3 G 4 48° 79% - - 42° 49.7° 47.9° - - -
4/26 12:20am 303 2 G 3 49° 80% - - 43° 49.7° 48.4° - - -
4/26 12:10am 311 1 G 2 49° 82% - - 44° 49.7° 48.9° - - -
4/26 12:00am 337 1 G 2 49° 83% - - 44° 62.8° 47.5° - - -
4/25 11:50pm 330 2 G 3 49° 81% - - 44° 62.8° 47.5° - - -
4/25 11:40pm 290 2 G 3 50° 83% - - 45° 62.8° 47.5° - - -
4/25 11:30pm 277 2 G 4 50° 83% - - 45° 62.8° 47.5° - - -
4/25 11:20pm 292 2 G 3 50° 84% - - 45° 62.8° 47.5° - - -
4/25 11:10pm 318 3 G 4 50° 84% - - 45° 62.8° 47.5° - - -
4/25 11:00pm 300 3 G 3 50° 85% - - 45° 62.8° 47.5° - - -
4/25 10:50pm 299 3 G 4 50° 86% - - 46° 62.8° 47.5° - - -
4/25 10:40pm 308 3 G 3 49° 85% - - 45° 62.8° 47.5° - - -
4/25 10:30pm 302 2 G 3 51° 82% - - 46° 62.8° 47.5° - - -
4/25 10:20pm 291 2 G 2 51° 83% - - 46° 62.8° 47.5° - - -
4/25 10:10pm 293 2 G 3 51° 83% - - 46° 62.8° 47.5° - - -
4/25 10:00pm 336 2 G 2 51° 81% - - 46° 62.8° 47.5° - - -
4/25 9:50pm 310 2 G 2 52° 81% - - 46° 62.8° 47.5° - - -
4/25 9:40pm 303 2 G 3 52° 81% - - 46° 62.8° 47.5° - - -
4/25 9:30pm 296 2 G 3 52° 81% - - 46° 62.8° 47.5° - - -
4/25 9:20pm 308 2 G 3 52° 79% - - 46° 62.8° 47.5° - - -
4/25 9:10pm 288 3 G 5 53° 80% - - 46° 62.8° 47.5° - - -
4/25 9:00pm 279 4 G 6 52° 80% - - 46° 62.8° 47.5° - - -
4/25 8:50pm 282 4 G 6 53° 79% - - 46° 62.8° 47.5° - - -
4/25 8:40pm 286 5 G 6 53° 78% - - 46° 62.8° 47.5° - - -
4/25 8:30pm 288 4 G 5 53° 77% - - 46° 62.8° 47.5° - - -
4/25 8:20pm 286 4 G 6 53° 76% - - 46° 62.8° 47.5° - - -
4/25 8:10pm 295 4 G 7 54° 75% - - 46° 62.8° 47.5° - - -
4/25 8:00pm 289 5 G 6 54° 73% - - 46° 62.8° 47.5° - - -
4/25 7:50pm 291 3 G 5 55° 70% - - 45° 62.8° 47.5° - - -
4/25 7:40pm 338 5 G 10 56° 68% - - 45° 62.8° 47.5° - - -
4/25 7:30pm 344 6 G 11 56° 67% - - 45° 62.8° 47.5° - - -
4/25 7:20pm 348 6 G 11 57° 65% - - 45° 62.8° 47.5° - - -
4/25 7:10pm 338 6 G 13 57° 65% - - 45° 62.8° 47.5° - - -
4/25 7:00pm 334 5 G 13 58° 64% - - 45° 62.8° 47.5° - - -
4/25 6:50pm 339 7 G 13 58° 62% - - 45° 62.8° 47.5° - - -
4/25 6:40pm 344 8 G 15 59° 60% - - 45° 62.8° 47.5° - - -
4/25 6:30pm 350 6 G 11 59° 60% - - 45° 62.8° 47.5° - - -
4/25 6:20pm 336 7 G 13 58° 60% - - 45° 62.8° 47.5° - - -
4/25 6:10pm 335 8 G 14 59° 59% - - 44° 62.8° 47.5° - - -
4/25 6:00pm 335 8 G 13 59° 59% - - 45° 62.8° 47.5° - - -
4/25 5:50pm 324 7 G 12 59° 59% - - 44° 62.8° 47.5° - - -
4/25 5:40pm 325 8 G 15 59° 58% - - 44° 62.8° 47.5° - - -
4/25 5:30pm 326 8 G 15 59° 57% - - 44° 62.8° 47.5° - - -
4/25 5:20pm 328 9 G 14 60° 57% - - 44° 62.8° 47.5° - - -
4/25 5:10pm 320 9 G 16 59° 57% - - 44° 62.8° 47.5° - - -
4/25 5:00pm 330 8 G 17 59° 56% - - 44° 62.8° 47.5° - - -
4/25 4:50pm 312 7 G 14 60° 56% - - 44° 62.8° 47.5° - - -
4/25 4:40pm 328 8 G 14 60° 55% - - 44° 62.8° 47.5° - - -
4/25 4:30pm 312 9 G 17 60° 54% - - 43° 62.8° 47.5° - - -
4/25 4:20pm 321 9 G 17 61° 51% - - 43° 62.8° 47.5° - - -
4/25 4:10pm 328 8 G 16 61° 51% - - 43° 62.8° 47.5° - - -
4/25 4:00pm 323 8 G 15 61° 51% - - 43° 62.8° 47.5° - - -
4/25 3:50pm 339 10 G 18 61° 49% - - 42° 62.8° 47.5° - - -
4/25 3:40pm 321 9 G 16 62° 48% - - 42° 62.8° 47.5° - - -
4/25 3:30pm 332 8 G 17 61° 47% - - 41° 62.8° 47.5° - - -
4/25 3:20pm 318 9 G 17 61° 46% - - 40° 62.8° 47.5° - - -
4/25 3:10pm 334 9 G 18 61° 45% - - 40° 62.8° 47.5° - - -
4/25 3:00pm 335 9 G 17 62° 43% - - 39° 62.8° 47.5° - - -
4/25 2:50pm 330 7 G 14 62° 44% - - 40° 62.7° 47.5° - - -
4/25 2:40pm 342 8 G 15 62° 44% - - 40° 62.7° 47.5° - - -
4/25 2:30pm 319 7 G 13 61° 44% - - 39° 62° 47.5° - - -
4/25 2:20pm 339 7 G 13 61° 46% - - 40° 61.9° 47.5° - - -
4/25 2:10pm 329 8 G 15 61° 46% - - 40° 61.9° 47.5° - - -
4/25 2:00pm 335 9 G 17 61° 47% - - 41° 61.9° 47.5° - - -
4/25 1:50pm 312 10 G 18 61° 48% - - 41° 61.9° 47.5° - - -
4/25 1:40pm 315 9 G 17 61° 48% - - 41° 61.9° 47.5° - - -
4/25 1:30pm 304 10 G 18 61° 46% - - 40° 61.9° 47.5° - - -
4/25 1:20pm 337 8 G 15 61° 44% - - 39° 61.9° 47.5° - - -
4/25 1:10pm 352 9 G 16 60° 44% - - 38° 61.9° 47.5° - - -
4/25 1:00pm 327 11 G 19 61° 43% - - 38° 61.9° 47.5° - - -
4/25 12:50pm 359 9 G 17 61° 42% - - 38° 61.9° 47.5° - - -
4/25 12:40pm 340 9 G 15 61° 43% - - 38° 61.9° 47.5° - - -
4/25 12:30pm 344 8 G 15 60° 43% - - 38° 61.1° 47.5° - - -
4/25 12:20pm 344 9 G 15 60° 44% - - 38° 60.5° 47.5° - - -
4/25 12:10pm 343 8 G 17 60° 42% - - 37° 60.3° 47.5° - - -
4/25 12:00pm 339 7 G 16 59° 44% - - 37° 59.9° 47.5° - - -
4/25 11:50am 318 6 G 13 59° 46% - - 39° 59.8° 47.5° - - -
4/25 11:40am 315 6 G 12 59° 49% - - 40° 59.7° 47.5° - - -
4/25 11:30am 335 6 G 13 58° 52% - - 41° 59.1° 47.5° - - -
4/25 11:20am 336 6 G 11 58° 51% - - 40° 58.4° 47.5° - - -
4/25 11:10am 321 6 G 12 57° 56% - - 42° 57.8° 47.5° - - -
4/25 11:00am 320 6 G 13 57° 57% - - 42° 57.8° 47.5° - - -
4/25 10:50am 334 7 G 14 57° 61% - - 43° 57.7° 47.5° - - -
4/25 10:40am 321 5 G 12 57° 62% - - 44° 57.7° 47.5° - - -
4/25 10:30am 318 6 G 12 56° 63% - - 44° 57.1° 47.5° - - -
4/25 10:20am 324 7 G 13 56° 64% - - 44° 57.1° 47.5° - - -
4/25 10:10am 333 6 G 11 56° 64% - - 44° 57.1° 47.5° - - -
4/25 10:00am 325 7 G 12 55° 65% - - 44° 56.3° 47.5° - - -
4/25 9:50am 325 6 G 12 55° 67% - - 44° 55.4° 47.5° - - -
4/25 9:40am 321 6 G 14 55° 67% - - 44° 55.3° 47.5° - - -
4/25 9:30am 329 5 G 11 54° 70% - - 44° 54.5° 47.5° - - -
4/25 9:20am 319 6 G 12 53° 74% - - 44° 53.2° 47.5° - - -
4/25 9:10am 308 7 G 11 52° 74% - - 44° 53° 47.5° - - -
4/25 9:00am 319 5 G 9 52° 76% - - 45° 53° 47.5° - - -
4/25 8:50am 314 5 G 9 51° 78% - - 45° 51.9° 47.5° - - -
4/25 8:40am 292 6 G 10 50° 80% - - 44° 51.4° 47.5° - - -
4/25 8:30am 290 5 G 9 50° 79% - - 44° 51.4° 47.5° - - -
4/25 8:20am 331 5 G 10 51° 80% - - 45° 51.4° 47.5° - - -
4/25 8:10am 326 6 G 10 50° 84% - - 45° 50.4° 47.5° - - -
4/25 8:00am 335 5 G 9 49° 86% - - 45° 50.4° 47.5° - - -
4/25 7:50am 307 5 G 10 49° 87% - - 45° 50.4° 47.5° - - -
4/25 7:40am 302 6 G 11 49° 87% - - 45° 50.4° 47.5° - - -
4/25 7:30am 298 5 G 9 49° 89% - - 45° 50.4° 47.5° - - -
4/25 7:20am 314 4 G 7 48° 91% - - 46° 50.4° 47.5° - - -
4/25 7:10am 281 3 G 5 48° 92% - - 46° 50.4° 47.5° - - -
4/25 7:00am 312 2 G 6 48° 93% - - 46° 50.4° 47.5° - - -
4/25 6:50am 292 3 G 6 48° 95% - - 47° 50.4° 47.5° - - -
4/25 6:40am 335 3 G 8 48° 95% - - 47° 50.4° 47.5° - - -
4/25 6:30am 306 4 G 7 48° 95% - - 47° 50.4° 47.5° - - -
4/25 6:20am 269 5 G 8 48° 97% - - 47° 50.4° 47.5° - - -
4/25 6:10am 276 4 G 8 48° 96% - - 47° 50.4° 47.5° - - -
4/25 6:00am 324 4 G 8 48° 98% - - 47° 50.4° 47.5° - - -
4/25 5:50am 318 4 G 6 48° 98% - - 47° 50.4° 47.8° - - -
4/25 5:40am 286 5 G 8 48° 99% - - 48° 50.4° 47.8° - - -
4/25 5:30am 284 5 G 8 48° 99% - - 48° 50.4° 47.8° - - -
4/25 5:20am 289 5 G 7 48° 99% - - 48° 50.4° 47.9° - - -
4/25 5:10am 290 5 G 9 48° 99% - - 48° 50.4° 47.9° - - -
4/25 5:00am 294 5 G 8 48° 99% - - 48° 50.4° 47.9° - - -
4/25 4:50am 290 5 G 7 48° 99% - - 48° 50.4° 47.9° - - -
4/25 4:40am 291 6 G 9 48° 99% - - 48° 50.4° 47.9° - - -
4/25 4:30am 295 5 G 8 48° 100% - - 48° 50.4° 47.9° - - -
4/25 4:20am 295 5 G 9 48° 100% - - 48° 50.4° 47.9° - - -
4/25 4:10am 299 5 G 7 48° 100% - - 48° 50.4° 47.9° - - -
4/25 4:00am 288 5 G 8 48° 100% - - 48° 50.4° 47.9° - - -
4/25 3:50am 303 5 G 9 48° 100% - - 48° 50.4° 48.1° - - -
4/25 3:40am 328 5 G 8 48° 100% - - 48° 50.4° 48.1° - - -
4/25 3:30am 318 4 G 8 48° 100% - - 48° 50.4° 48.2° - - -
4/25 3:20am 304 5 G 9 48° 100% - - 48° 50.4° 48.2° - - -
4/25 3:10am 306 4 G 10 48° 100% - - 49° 50.4° 48.3° - - -
4/25 3:00am 309 5 G 10 49° 100% - - 49° 50.4° 48.3° - - -
4/25 2:50am 291 4 G 8 49° 100% - - 49° 50.4° 48.3° - - -
4/25 2:40am 312 3 G 9 49° 100% - - 49° 50.4° 48.3° - - -
4/25 2:30am 308 4 G 9 49° 100% - - 49° 50.4° 48.3° - - -
4/25 2:20am 303 4 G 8 49° 100% - - 49° 50.4° 48.3° - - -
4/25 2:10am 284 3 G 6 49° 100% - - 49° 50.4° 48.3° - - -
4/25 2:00am 269 4 G 6 49° 100% - - 49° 50.4° 48.3° - - -
4/25 1:50am 277 5 G 9 49° 100% - - 49° 50.4° 48.3° - - -
4/25 1:40am 278 5 G 8 49° 100% - - 49° 50.4° 48.5° - - -
4/25 1:30am 280 5 G 10 49° 100% - - 49° 50.4° 48.7° - - -
4/25 1:20am 287 5 G 8 49° 100% - - 49° 50.4° 48.8° - - -
4/25 1:10am 287 5 G 8 49° 99% - - 49° 50.4° 49.1° - - -
4/25 1:00am 293 4 G 8 50° 98% - - 49° 50.4° 49.6° - - -
4/25 12:50am 310 4 G 8 50° 98% - - 50° 50.4° 49.9° - - -
4/25 12:40am 294 4 G 7 50° 98% - - 50° 50.4° 49.9° - - -
4/25 12:30am 284 2 G 5 50° 99% - - 50° 50.4° 49.9° - - -
4/25 12:20am 284 2 G 3 50° 100% - - 50° 50.4° 49.9° - - -
4/25 12:10am 325 2 G 3 50° 100% - - 50° 50.2° 49.9° - - -
4/25 12:00am 38 3 G 4 50° 100% - - 50° 66° 41.1° - - -
4/24 11:50pm 262 1 G 2 50° 100% - - 50° 66° 41.1° - - -
4/24 11:40pm 311 1 G 4 50° 100% - - 50° 66° 41.1° - - -
4/24 11:30pm 278 4 G 7 50° 100% - - 50° 66° 41.1° - - -
4/24 11:20pm 306 6 G 11 50° 100% - - 50° 66° 41.1° - - -
4/24 11:10pm 309 6 G 11 50° 100% - - 50° 66° 41.1° - - -
4/24 11:00pm 326 6 G 10 50° 98% - - 50° 66° 41.1° - - -
4/24 10:50pm 321 5 G 9 51° 98% - - 50° 66° 41.1° - - -
4/24 10:40pm 307 6 G 10 51° 97% - - 50° 66° 41.1° - - -
4/24 10:30pm 332 4 G 7 51° 96% - - 50° 66° 41.1° - - -
4/24 10:20pm 324 3 G 7 51° 97% - - 50° 66° 41.1° - - -
4/24 10:10pm 309 4 G 6 51° 96% - - 50° 66° 41.1° - - -
4/24 10:00pm 294 4 G 5 52° 95% - - 50° 66° 41.1° - - -
4/24 9:50pm 289 3 G 5 52° 92% - - 50° 66° 41.1° - - -
4/24 9:40pm 278 3 G 5 52° 90% - - 49° 66° 41.1° - - -
4/24 9:30pm 275 3 G 4 52° 91% - - 50° 66° 41.1° - - -
4/24 9:20pm 281 3 G 7 52° 90% - - 49° 66° 41.1° - - -
4/24 9:10pm 290 4 G 6 53° 88% - - 49° 66° 41.1° - - -
4/24 9:00pm 266 3 G 6 53° 87% - - 49° 66° 41.1° - - -
4/24 8:50pm 279 3 G 5 53° 87% - - 49° 66° 41.1° - - -
4/24 8:40pm 293 4 G 7 53° 86% - - 49° 66° 41.1° - - -
4/24 8:30pm 298 3 G 7 53° 84% - - 49° 66° 41.1° - - -
4/24 8:20pm 310 3 G 7 54° 82% - - 48° 66° 41.1° - - -
4/24 8:10pm 282 2 G 7 54° 81% - - 48° 66° 41.1° - - -
4/24 8:00pm 257 2 G 5 54° 79% - - 48° 66° 41.1° - - -
4/24 7:50pm 269 3 G 6 55° 79% - - 48° 66° 41.1° - - -
4/24 7:40pm 283 3 G 5 55° 78% - - 48° 66° 41.1° - - -
4/24 7:30pm 301 4 G 7 55° 77% - - 48° 66° 41.1° - - -
4/24 7:20pm 306 5 G 9 56° 76% - - 48° 66° 41.1° - - -
4/24 7:10pm 315 5 G 9 56° 75% - - 48° 66° 41.1° - - -
4/24 7:00pm 302 6 G 10 57° 74% - - 48° 66° 41.1° - - -
4/24 6:50pm 311 6 G 11 57° 71% - - 48° 66° 41.1° - - -
4/24 6:40pm 299 7 G 12 58° 69% - - 48° 66° 41.1° - - -
4/24 6:30pm 303 7 G 11 58° 68% - - 48° 66° 41.1° - - -
4/24 6:20pm 294 7 G 12 59° 66% - - 48° 66° 41.1° - - -
4/24 6:10pm 315 6 G 11 59° 64% - - 47° 66° 41.1° - - -
4/24 6:00pm 292 6 G 10 60° 62% - - 47° 66° 41.1° - - -